Time;durP1;ratioP1;P1;durP2;ratioP2;P2;SDS_P1;SDS_P2;PMS_P1;PMS_P2;Temp;Humidity;BMP_temperature;BMP_pressure;BME280_temperature;BME280_humidity;BME280_pressure;Samples;Min_cycle;Max_cycle;Signal;HPM_P1;HPM_P2
2022/11/15 00:01:18;;;;;;;32.20;17.08;;;;;;;6.94;100.00;100784.13;5049945;28;20087;-76
2022/11/15 00:03:44;;;;;;;29.05;17.05;;;;;;;6.95;100.00;100786.78;5051676;28;20025;-76
2022/11/15 00:06:10;;;;;;;27.77;16.67;;;;;;;7.01;100.00;100782.63;5053925;28;20020;-76
2022/11/15 00:08:35;;;;;;;30.67;16.83;;;;;;;7.04;100.00;100775.88;5047958;28;20021;-76
2022/11/15 00:11:02;;;;;;;32.13;16.33;;;;;;;7.09;100.00;100783.81;5064284;28;20260;-76
2022/11/15 00:13:28;;;;;;;30.58;17.48;;;;;;;7.12;100.00;100789.97;5065806;28;20025;-76
2022/11/15 00:15:57;;;;;;;31.20;16.80;;;;;;;7.16;100.00;100778.03;5051831;28;20033;-76
2022/11/15 00:18:23;;;;;;;28.95;16.52;;;;;;;7.18;100.00;100778.97;5047318;28;20026;-77
2022/11/15 00:20:48;;;;;;;29.60;16.73;;;;;;;7.24;100.00;100778.31;5048452;28;20032;-76
2022/11/15 00:23:13;;;;;;;31.70;17.02;;;;;;;7.27;100.00;100781.91;5046632;28;20025;-76
2022/11/15 00:25:39;;;;;;;31.88;17.35;;;;;;;7.33;100.00;100783.84;5062834;28;20088;-76
2022/11/15 00:28:04;;;;;;;30.73;16.80;;;;;;;7.38;100.00;100776.22;5065850;28;20036;-76
2022/11/15 00:30:30;;;;;;;30.75;16.92;;;;;;;7.44;100.00;100779.91;5050810;28;20029;-76
2022/11/15 00:32:55;;;;;;;30.63;15.65;;;;;;;7.50;100.00;100771.44;5040154;28;20027;-76
2022/11/15 00:35:21;;;;;;;29.88;16.83;;;;;;;7.54;100.00;100780.22;5052741;28;20024;-76
2022/11/15 00:37:47;;;;;;;29.55;17.00;;;;;;;7.57;100.00;100775.13;5054972;28;20221;-76
2022/11/15 00:40:13;;;;;;;32.05;16.90;;;;;;;7.62;100.00;100774.47;5058371;28;20028;-75
2022/11/15 00:42:39;;;;;;;28.77;16.52;;;;;;;7.67;100.00;100764.25;5055656;28;20092;-76
2022/11/15 00:45:05;;;;;;;33.03;17.23;;;;;;;7.71;100.00;100770.44;5059165;28;20255;-76
2022/11/15 00:47:30;;;;;;;28.58;16.92;;;;;;;7.76;100.00;100769.78;5055239;28;20021;-76
2022/11/15 00:49:55;;;;;;;33.38;17.95;;;;;;;7.78;100.00;100762.03;5069935;28;20462;-76
2022/11/15 00:52:21;;;;;;;29.92;17.05;;;;;;;7.82;100.00;100753.50;5063653;28;20202;-76
2022/11/15 00:54:46;;;;;;;31.92;17.08;;;;;;;7.87;100.00;100761.47;5063803;28;20313;-75
2022/11/15 00:57:11;;;;;;;34.47;17.23;;;;;;;7.91;100.00;100758.16;5061683;28;20208;-76
2022/11/15 00:59:36;;;;;;;31.25;17.63;;;;;;;7.97;100.00;100759.22;5060332;28;20214;-76
2022/11/15 01:02:02;;;;;;;30.17;16.73;;;;;;;7.99;100.00;100761.84;5059353;28;20017;-76
2022/11/15 01:04:27;;;;;;;34.67;17.30;;;;;;;8.04;100.00;100752.50;5059590;28;20096;-76
2022/11/15 01:06:53;;;;;;;32.53;17.23;;;;;;;8.10;100.00;100754.44;5051836;28;20017;-76
2022/11/15 01:09:18;;;;;;;35.33;17.88;;;;;;;8.13;100.00;100757.13;5064033;28;20033;-76
2022/11/15 01:11:43;;;;;;;34.05;17.40;;;;;;;8.16;100.00;100755.47;5049266;28;20021;-76
2022/11/15 01:14:09;;;;;;;33.20;18.45;;;;;;;8.17;100.00;100757.25;5058779;28;20283;-76
2022/11/15 01:16:34;;;;;;;35.50;17.80;;;;;;;8.21;100.00;100749.56;5060221;28;20025;-76
2022/11/15 01:18:59;;;;;;;34.92;17.80;;;;;;;8.25;100.00;100744.50;5061623;28;20377;-76
2022/11/15 01:21:25;;;;;;;35.67;17.70;;;;;;;8.28;100.00;100744.59;5055578;28;20044;-76
2022/11/15 01:23:54;;;;;;;32.20;17.45;;;;;;;8.31;100.00;100741.22;5056327;28;20037;-76
2022/11/15 01:26:19;;;;;;;35.03;18.08;;;;;;;8.34;100.00;100741.31;5049974;28;20025;-76
2022/11/15 01:28:44;;;;;;;35.17;17.52;;;;;;;8.34;100.00;100730.94;5052424;28;20279;-76
2022/11/15 01:31:13;;;;;;;33.28;18.40;;;;;;;8.35;100.00;100736.19;5057340;28;20052;-76
2022/11/15 01:33:39;;;;;;;34.83;17.38;;;;;;;8.40;100.00;100732.84;5057934;28;20020;-76
2022/11/15 01:36:06;;;;;;;34.75;18.13;;;;;;;8.42;100.00;100726.88;5064753;28;20025;-76
2022/11/15 01:38:31;;;;;;;31.63;17.05;;;;;;;8.45;100.00;100723.53;5064236;28;20017;-75
2022/11/15 01:40:56;;;;;;;34.83;18.20;;;;;;;8.47;100.00;100727.94;5065964;28;20208;-76
2022/11/15 01:43:34;;;;;;;37.05;19.45;;;;;;;8.49;100.00;100726.25;5047710;28;20022;-76
2022/11/15 01:46:05;;;;;;;36.05;19.00;;;;;;;8.50;100.00;100730.63;5051403;28;20040;-76
2022/11/15 01:48:33;;;;;;;37.60;19.05;;;;;;;8.55;100.00;100733.34;5054172;28;20024;-76
2022/11/15 01:51:02;;;;;;;34.45;19.13;;;;;;;8.58;100.00;100732.56;5062413;28;20222;-76
2022/11/15 01:53:31;;;;;;;37.47;18.95;;;;;;;8.60;100.00;100726.56;5068030;28;20085;-76
2022/11/15 01:55:57;;;;;;;39.88;18.55;;;;;;;8.65;100.00;100725.00;5064517;28;20017;-76
2022/11/15 01:58:22;;;;;;;35.75;18.88;;;;;;;8.68;100.00;100735.47;5064365;28;20083;-76
2022/11/15 02:00:49;;;;;;;41.58;20.23;;;;;;;8.71;100.00;100729.50;5058885;28;20143;-76
2022/11/15 02:03:15;;;;;;;36.30;19.45;;;;;;;8.75;100.00;100723.56;5054427;28;20017;-76
2022/11/15 02:05:42;;;;;;;34.17;19.17;;;;;;;8.78;100.00;100726.25;5065117;28;20160;-76
2022/11/15 02:08:08;;;;;;;35.35;19.58;;;;;;;8.80;100.00;100724.53;5059313;28;20088;-76
2022/11/15 02:10:33;;;;;;;38.67;19.27;;;;;;;8.84;100.00;100716.00;5061793;28;20143;-76
2022/11/15 02:13:01;;;;;;;37.72;19.85;;;;;;;8.88;100.00;100717.88;5063667;28;20024;-76
2022/11/15 02:15:33;;;;;;;38.90;19.88;;;;;;;8.93;100.00;100712.78;5045537;28;20028;-76
2022/11/15 02:18:07;;;;;;;40.05;20.00;;;;;;;8.97;100.00;100716.38;5060030;28;20017;-76
2022/11/15 02:20:52;;;;;;;37.92;19.25;;;;;;;8.99;100.00;100712.09;5056764;28;20025;-76
2022/11/15 02:23:35;;;;;;;41.47;19.88;;;;;;;9.03;100.00;100700.94;5058742;28;20036;-76
2022/11/15 02:26:29;;;;;;;39.47;20.40;;;;;;;9.05;100.00;100709.66;5064060;28;20259;-76
2022/11/15 02:29:32;;;;;;;38.83;20.77;;;;;;;9.12;100.00;100695.97;5043222;28;20024;-69
2022/11/15 02:32:13;;;;;;;42.25;20.77;;;;;;;9.17;100.00;100698.72;5049209;28;20079;-69
2022/11/15 02:35:01;;;;;;;44.55;21.42;;;;;;;9.23;100.00;100699.75;5049430;28;20095;-70
2022/11/15 02:37:42;;;;;;;42.33;20.30;;;;;;;9.28;100.00;100696.41;5009784;28;20095;-69
2022/11/15 02:40:40;;;;;;;40.72;20.42;;;;;;;9.31;100.00;100689.56;5044091;28;20028;-70
2022/11/15 02:46:07;;;;;;;44.13;21.60;;;;;;;9.35;100.00;100688.78;5044746;28;20044;-70
2022/11/15 02:48:33;;;;;;;42.53;20.17;;;;;;;9.39;100.00;100684.56;5047783;28;20020;-70
2022/11/15 02:51:00;;;;;;;43.72;21.77;;;;;;;9.40;100.00;100684.59;5044009;28;20294;-70
2022/11/15 02:53:25;;;;;;;46.53;22.27;;;;;;;9.45;100.00;100683.84;5048588;28;20024;-70
2022/11/15 02:55:53;;;;;;;45.15;20.95;;;;;;;9.46;100.00;100683.88;5044043;28;20044;-70
2022/11/15 02:58:36;;;;;;;45.35;21.85;;;;;;;9.48;100.00;100678.72;5042818;28;20020;-76
2022/11/15 03:01:17;;;;;;;43.33;20.75;;;;;;;9.49;100.00;100665.75;5048084;28;20029;-76
2022/11/15 03:04:28;;;;;;;42.03;21.35;;;;;;;9.53;100.00;100661.50;5051966;28;20013;-76
2022/11/15 03:07:18;;;;;;;43.40;21.55;;;;;;;9.55;100.00;100663.28;5058479;28;20087;-75
2022/11/15 03:10:06;;;;;;;43.83;21.60;;;;;;;9.56;100.00;100659.88;5037416;28;20021;-75
2022/11/15 03:12:56;;;;;;;41.20;21.85;;;;;;;9.57;100.00;100663.31;5050988;28;20221;-75
2022/11/15 03:15:27;;;;;;;46.45;22.65;;;;;;;9.59;100.00;100661.66;5061439;28;20020;-76
2022/11/15 03:18:00;;;;;;;43.10;21.30;;;;;;;9.61;100.00;100665.16;5046224;28;20056;-76
2022/11/15 03:20:27;;;;;;;43.15;21.80;;;;;;;9.62;100.00;100668.66;5043385;28;20026;-75
2022/11/15 03:22:56;;;;;;;47.25;22.27;;;;;;;9.64;100.00;100669.56;5043001;28;20041;-75
2022/11/15 03:25:26;;;;;;;44.15;20.65;;;;;;;9.66;100.00;100673.97;5043892;28;20017;-75
2022/11/15 03:27:53;;;;;;;;;;;;;;;9.70;100.00;100668.00;5034016;28;20021;-75
2022/11/15 03:30:19;;;;;;;44.97;21.40;;;;;;;9.71;100.00;100667.16;5028059;28;20124;-75
2022/11/15 03:32:48;;;;;;;46.40;22.80;;;;;;;9.74;100.00;100666.34;5044863;28;20029;-74
2022/11/15 03:35:27;;;;;;;43.38;21.70;;;;;;;9.76;100.00;100667.25;5054028;28;20325;-76
2022/11/15 03:37:57;;;;;;;47.65;22.45;;;;;;;9.77;100.00;100671.63;5058287;28;20032;-75
2022/11/15 03:40:29;;;;;;;48.70;22.63;;;;;;;9.78;100.00;100668.19;5057393;28;20171;-76
2022/11/15 03:43:04;;;;;;;50.53;22.52;;;;;;;9.82;100.00;100672.63;5065172;28;20055;-75
2022/11/15 03:45:39;;;;;;;48.70;23.63;;;;;;;9.83;100.00;100671.75;5052145;28;20045;-75
2022/11/15 03:48:16;;;;;;;46.03;21.60;;;;;;;9.82;100.00;100670.03;5055216;28;20021;-76
2022/11/15 03:50:43;;;;;;;48.80;23.38;;;;;;;9.83;100.00;100679.56;5052884;28;20317;-75
2022/11/15 03:53:09;;;;;;;47.92;23.10;;;;;;;9.84;100.00;100676.13;5060084;28;20082;-75
2022/11/15 03:55:34;;;;;;;51.75;23.92;;;;;;;9.85;100.00;100672.69;5064390;28;20017;-75
2022/11/15 03:58:00;;;;;;;53.85;23.63;;;;;;;9.89;100.00;100671.03;5045669;28;20134;-76
2022/11/15 04:00:27;;;;;;;50.28;23.95;;;;;;;9.92;100.00;100671.09;5060178;28;20027;-76
2022/11/15 04:02:52;;;;;;;57.90;24.75;;;;;;;9.92;100.00;100672.00;5038808;28;20047;-76
2022/11/15 04:05:17;;;;;;;49.78;24.83;;;;;;;9.94;100.00;100665.97;5040128;28;20124;-76
2022/11/15 04:07:43;;;;;;;56.50;25.05;;;;;;;9.95;100.00;100670.28;5054433;28;20368;-75
2022/11/15 04:10:10;;;;;;;52.20;23.73;;;;;;;9.97;100.00;100668.63;5053533;28;20044;-75
2022/11/15 04:12:37;;;;;;;54.50;24.40;;;;;;;9.96;100.00;100667.72;5054444;28;20036;-75
2022/11/15 04:15:07;;;;;;;58.58;25.10;;;;;;;9.99;100.00;100662.59;5058616;28;20104;-76
2022/11/15 04:17:40;;;;;;;55.97;24.50;;;;;;;10.01;100.00;100665.25;5062160;28;20031;-75
2022/11/15 04:25:43;;;;;;;56.80;24.45;;;;;;;10.01;100.00;100665.25;5046506;28;20044;-76
2022/11/15 04:28:09;;;;;;;49.47;23.58;;;;;;;10.01;100.00;100662.66;5046737;28;20012;-70
2022/11/15 04:30:34;;;;;;;55.10;24.33;;;;;;;10.01;100.00;100658.31;5052559;28;20025;-70
2022/11/15 04:33:00;;;;;;;54.30;23.73;;;;;;;10.01;100.00;100663.53;5045127;28;20049;-70
2022/11/15 04:35:25;;;;;;;49.17;22.85;;;;;;;10.03;100.00;100664.41;5047702;28;20338;-70
2022/11/15 04:37:50;;;;;;;54.33;23.55;;;;;;;10.03;100.00;100666.16;5048462;28;20252;-70
2022/11/15 04:40:16;;;;;;;53.13;22.90;;;;;;;10.02;100.00;100661.78;5027747;28;20160;-69
2022/11/15 04:42:44;;;;;;;47.22;22.10;;;;;;;10.02;100.00;100669.59;5049450;28;20287;-70
2022/11/15 04:45:10;;;;;;;48.67;22.85;;;;;;;10.03;100.00;100668.75;5047991;28;20024;-70
2022/11/15 04:47:35;;;;;;;49.95;22.95;;;;;;;10.02;100.00;100673.09;5031332;28;20067;-70
2022/11/15 04:50:00;;;;;;;51.38;23.00;;;;;;;10.05;100.00;100667.06;5044700;28;20355;-70
2022/11/15 04:52:26;;;;;;;50.38;22.50;;;;;;;10.05;100.00;100665.34;5042985;28;20099;-70
2022/11/15 04:54:51;;;;;;;53.08;24.23;;;;;;;10.06;100.00;100668.81;5048539;28;20017;-70
2022/11/15 04:57:17;;;;;;;51.03;22.75;;;;;;;10.05;100.00;100661.84;5047172;28;20033;-75
2022/11/15 04:59:42;;;;;;;52.85;22.88;;;;;;;10.06;100.00;100658.41;5047159;28;20256;-75
2022/11/15 05:02:07;;;;;;;45.17;22.40;;;;;;;10.07;100.00;100665.38;5046513;28;20043;-75
2022/11/15 05:04:33;;;;;;;47.50;22.55;;;;;;;10.06;100.00;100658.41;5027658;28;20024;-75
2022/11/15 05:06:58;;;;;;;53.50;24.25;;;;;;;10.06;100.00;100667.09;5043958;28;20025;-76
2022/11/15 05:09:24;;;;;;;48.70;22.98;;;;;;;10.07;100.00;100660.19;5046340;28;20025;-75
2022/11/15 05:11:49;;;;;;;52.05;22.40;;;;;;;10.08;100.00;100661.94;5046865;28;20068;-75
2022/11/15 05:14:15;;;;;;;49.10;23.45;;;;;;;10.09;100.00;100663.69;5028836;28;20013;-75
2022/11/15 05:16:41;;;;;;;49.10;22.75;;;;;;;10.10;100.00;100665.44;5046012;28;20028;-75
2022/11/15 05:19:06;;;;;;;45.83;22.42;;;;;;;10.10;100.00;100668.06;5031888;28;20207;-75
2022/11/15 05:21:32;;;;;;;48.60;22.90;;;;;;;10.09;100.00;100664.59;5053656;28;20211;-75
2022/11/15 05:23:58;;;;;;;47.92;22.33;;;;;;;10.10;100.00;100662.84;5051198;28;20040;-75
2022/11/15 05:26:23;;;;;;;55.20;24.45;;;;;;;10.11;100.00;100656.81;5047175;28;20021;-75
2022/11/15 05:28:56;;;;;;;54.17;24.50;;;;;;;10.11;100.00;100649.00;5049934;28;20067;-75
2022/11/15 05:31:22;;;;;;;47.28;22.33;;;;;;;10.13;100.00;100659.44;5049644;28;20052;-75
2022/11/15 05:33:49;;;;;;;50.83;22.83;;;;;;;10.12;100.00;100648.13;5046116;28;20056;-75
2022/11/15 05:36:35;;;;;;;48.85;23.10;;;;;;;10.13;100.00;100651.63;5044303;28;20256;-75
2022/11/15 05:39:01;;;;;;;46.63;22.38;;;;;;;10.13;100.00;100647.28;5029139;28;20030;-75
2022/11/15 05:41:32;;;;;;;46.83;21.50;;;;;;;10.13;100.00;100647.28;5044285;28;20173;-75
2022/11/15 05:43:58;;;;;;;45.15;21.90;;;;;;;10.13;100.00;100649.03;5046203;28;20033;-75
2022/11/15 05:46:23;;;;;;;48.55;23.05;;;;;;;10.14;100.00;100642.94;5045263;28;20051;-75
2022/11/15 05:48:51;;;;;;;50.13;22.67;;;;;;;10.14;100.00;100643.84;5044622;28;20086;-75
2022/11/15 05:51:18;;;;;;;42.30;20.58;;;;;;;10.14;100.00;100646.47;5046504;28;20025;-75
2022/11/15 05:53:44;;;;;;;46.05;21.67;;;;;;;10.12;100.00;100648.13;5044518;28;20068;-75
2022/11/15 05:56:10;;;;;;;44.50;20.67;;;;;;;10.11;100.00;100643.78;5044808;28;20013;-75
2022/11/15 05:58:37;;;;;;;45.78;21.00;;;;;;;10.10;100.00;100655.03;5045024;28;20013;-75
2022/11/15 06:01:02;;;;;;;51.05;21.77;;;;;;;10.09;100.00;100659.38;5045671;28;20032;-75
2022/11/15 06:03:28;;;;;;;48.72;21.20;;;;;;;10.10;100.00;100658.50;5044279;28;20172;-75
2022/11/15 06:05:53;;;;;;;46.67;21.35;;;;;;;10.13;100.00;100664.66;5047245;28;20025;-75
2022/11/15 06:08:18;;;;;;;43.20;20.67;;;;;;;10.13;100.00;100664.66;5044670;28;20262;-75
2022/11/15 06:10:44;;;;;;;46.78;21.13;;;;;;;10.14;100.00;100672.50;5045829;28;20275;-75
2022/11/15 06:13:09;;;;;;;48.08;21.85;;;;;;;10.16;100.00;100672.53;5047537;28;20040;-75
2022/11/15 06:15:34;;;;;;;55.17;22.23;;;;;;;10.17;100.00;100671.69;5026061;28;20055;-75
2022/11/15 06:18:00;;;;;;;44.65;21.58;;;;;;;10.18;100.00;100673.44;5047576;28;20039;-75
2022/11/15 06:20:27;;;;;;;47.40;21.55;;;;;;;10.18;100.00;100671.72;5047368;28;20267;-75
2022/11/15 06:23:00;;;;;;;47.22;21.85;;;;;;;10.19;100.00;100676.06;5042887;28;20017;-75
2022/11/15 06:25:26;;;;;;;47.22;21.77;;;;;;;10.21;100.00;100673.50;5027156;28;20029;-75
2022/11/15 06:27:53;;;;;;;46.78;21.90;;;;;;;10.22;100.00;100676.13;5045531;28;20029;-75
2022/11/15 06:30:19;;;;;;;46.80;22.63;;;;;;;10.23;100.00;100674.44;5048019;28;20028;-75
2022/11/15 06:32:45;;;;;;;47.97;22.42;;;;;;;10.24;100.00;100678.78;5053487;28;20163;-75
2022/11/15 06:35:10;;;;;;;52.35;22.92;;;;;;;10.24;100.00;100677.06;5038923;28;20017;-75
2022/11/15 06:37:35;;;;;;;48.95;21.77;;;;;;;10.25;100.00;100680.53;5059724;28;20079;-75
2022/11/15 06:40:00;;;;;;;46.05;22.50;;;;;;;10.25;100.00;100675.31;5061043;28;20043;-75
2022/11/15 06:42:26;;;;;;;46.53;21.88;;;;;;;10.25;100.00;100681.44;5046520;28;20169;-75
2022/11/15 06:44:51;;;;;;;47.95;21.02;;;;;;;10.25;100.00;100680.53;5044678;28;20219;-75
2022/11/15 06:47:16;;;;;;;44.28;21.15;;;;;;;10.24;100.00;100689.22;5052495;28;20020;-75
2022/11/15 06:49:42;;;;;;;45.30;21.23;;;;;;;10.22;100.00;100686.53;5045750;28;20256;-75
2022/11/15 06:52:07;;;;;;;44.25;19.05;;;;;;;10.21;100.00;100692.63;5044626;28;20603;-75
2022/11/15 06:54:32;;;;;;;42.78;18.83;;;;;;;10.19;100.00;100691.69;5042916;28;20024;-76
2022/11/15 06:56:58;;;;;;;43.72;19.90;;;;;;;10.19;100.00;100696.88;5044549;28;20271;-75
2022/11/15 06:59:23;;;;;;;41.20;18.30;;;;;;;10.18;100.00;100695.16;5045720;28;20092;-75
2022/11/15 07:01:49;;;;;;;40.38;17.95;;;;;;;10.18;100.00;100700.38;5049893;28;20444;-76
2022/11/15 07:04:14;;;;;;;35.53;16.58;;;;;;;10.16;100.00;100690.75;5046989;28;20321;-75
2022/11/15 07:06:39;;;;;;;38.25;17.92;;;;;;;10.16;100.00;100696.81;5044757;28;20022;-75
2022/11/15 07:09:05;;;;;;;37.38;17.17;;;;;;;10.15;100.00;100705.47;5045084;28;20021;-75
2022/11/15 07:11:30;;;;;;;35.53;17.08;;;;;;;10.14;100.00;100700.22;5051213;28;20029;-76
2022/11/15 07:13:55;;;;;;;36.17;17.15;;;;;;;10.14;100.00;100703.75;5043386;28;20072;-76
2022/11/15 07:16:21;;;;;;;38.55;18.20;;;;;;;10.14;100.00;100714.16;5043296;28;20021;-75
2022/11/15 07:18:46;;;;;;;36.50;17.67;;;;;;;10.14;100.00;100721.06;5047155;28;20175;-75
2022/11/15 07:21:12;;;;;;;33.78;16.80;;;;;;;10.12;100.00;100710.63;5054438;28;20103;-75
2022/11/15 07:23:38;;;;;;;44.70;17.88;;;;;;;10.11;100.00;100711.47;5049482;28;20017;-76
2022/11/15 07:26:05;;;;;;;36.22;16.73;;;;;;;10.11;100.00;100711.47;5044861;28;20036;-75
2022/11/15 07:28:30;;;;;;;33.17;16.92;;;;;;;10.10;100.00;100715.78;5046791;28;20032;-75
2022/11/15 07:30:55;;;;;;;35.38;16.80;;;;;;;10.11;100.00;100714.09;5045661;28;20049;-75
2022/11/15 07:33:21;;;;;;;35.33;17.33;;;;;;;10.11;100.00;100714.09;5044367;28;20021;-75
2022/11/15 07:35:49;;;;;;;35.95;16.50;;;;;;;10.13;100.00;100716.72;5047471;28;20048;-76
2022/11/15 07:38:15;;;;;;;37.28;17.20;;;;;;;10.13;100.00;100716.72;5049342;28;20036;-76
2022/11/15 07:40:41;;;;;;;35.97;16.92;;;;;;;10.13;100.00;100712.38;5050513;28;20029;-75
2022/11/15 07:43:08;;;;;;;36.25;16.48;;;;;;;10.11;100.00;100711.47;5061825;28;20064;-76
2022/11/15 07:45:34;;;;;;;35.05;16.77;;;;;;;10.10;100.00;100699.28;5056121;28;20268;-75
2022/11/15 07:48:00;;;;;;;41.38;17.05;;;;;;;10.08;100.00;100699.25;5040414;28;20029;-76
2022/11/15 07:50:26;;;;;;;37.10;16.80;;;;;;;10.06;100.00;100695.72;5053858;28;20025;-76
2022/11/15 07:52:59;;;;;;;37.15;17.13;;;;;;;10.05;100.00;100700.91;5041907;28;20279;-76
2022/11/15 07:55:27;;;;;;;39.17;16.88;;;;;;;10.03;100.00;100700.00;5043300;28;20021;-76
2022/11/15 07:57:52;;;;;;;43.28;17.55;;;;;;;10.04;100.00;100696.56;5045044;28;20184;-75
2022/11/15 08:00:18;;;;;;;40.60;17.70;;;;;;;10.03;100.00;100705.19;5044872;28;20025;-74
2022/11/15 08:02:44;;;;;;;38.40;17.05;;;;;;;10.03;100.00;100697.41;5032020;28;20025;-76
2022/11/15 08:05:10;;;;;;;38.53;17.08;;;;;;;10.03;100.00;100702.59;5059105;28;20289;-77
2022/11/15 08:07:35;;;;;;;35.30;16.55;;;;;;;10.03;100.00;100715.63;5052267;28;20036;-76
2022/11/15 08:10:01;;;;;;;43.28;17.75;;;;;;;10.03;100.00;100713.00;5032248;28;20029;-76
2022/11/15 08:12:28;;;;;;;36.00;15.95;;;;;;;10.03;100.00;100720.81;5059859;28;20263;-77
2022/11/15 08:14:54;;;;;;;36.35;16.38;;;;;;;10.05;100.00;100729.53;5061393;28;20029;-77
2022/11/15 08:17:19;;;;;;;35.58;16.20;;;;;;;10.03;100.00;100720.81;5059068;28;20033;-77
2022/11/15 08:19:45;;;;;;;30.77;14.45;;;;;;;10.03;100.00;100719.09;5056953;28;20162;-77
2022/11/15 08:22:10;;;;;;;35.63;15.25;;;;;;;10.03;100.00;100707.81;5049200;28;20247;-78
2022/11/15 08:24:35;;;;;;;29.02;14.70;;;;;;;10.01;100.00;100704.31;5049282;28;20238;-77
2022/11/15 08:27:01;;;;;;;32.53;14.55;;;;;;;9.98;100.00;100709.41;5048254;28;20021;-78
2022/11/15 08:29:26;;;;;;;28.13;13.05;;;;;;;9.97;100.00;100710.28;5052574;28;20179;-78
2022/11/15 08:31:54;;;;;;;32.08;12.85;;;;;;;9.97;100.00;100715.47;5052567;28;20033;-77
2022/11/15 08:34:20;;;;;;;28.33;14.07;;;;;;;9.96;100.00;100705.91;5049505;28;20017;-76
2022/11/15 08:36:45;;;;;;;26.65;12.05;;;;;;;9.95;100.00;100705.03;5039228;28;20016;-76
2022/11/15 08:39:12;;;;;;;29.17;13.65;;;;;;;9.93;100.00;100701.50;5037684;28;20028;-76
2022/11/15 08:41:38;;;;;;;27.85;12.45;;;;;;;9.95;100.00;100698.94;5049512;28;20248;-76
2022/11/15 08:44:03;;;;;;;26.00;12.13;;;;;;;9.94;100.00;100697.19;5049920;28;20125;-76
2022/11/15 08:46:28;;;;;;;26.48;11.90;;;;;;;9.95;100.00;100689.41;5061917;28;20084;-77
2022/11/15 08:48:54;;;;;;;23.40;11.68;;;;;;;9.95;100.00;100689.41;5038455;28;20062;-76
2022/11/15 08:51:19;;;;;;;24.27;11.40;;;;;;;9.96;100.00;100679.88;5052669;28;20081;-75
2022/11/15 08:53:44;;;;;;;26.92;10.75;;;;;;;9.98;100.00;100686.88;5047448;28;20016;-76
2022/11/15 08:56:11;;;;;;;22.08;10.35;;;;;;;9.99;100.00;100674.72;5054561;28;20040;-76
2022/11/15 08:58:37;;;;;;;22.98;10.77;;;;;;;10.00;100.00;100673.91;5047323;28;20044;-70
2022/11/15 09:01:04;;;;;;;19.85;9.93;;;;;;;10.02;100.00;100680.00;5063810;28;20255;-70
2022/11/15 09:03:29;;;;;;;17.20;9.05;;;;;;;10.02;100.00;100677.41;5061432;28;20268;-70
2022/11/15 09:05:59;;;;;;;18.60;9.82;;;;;;;10.04;100.00;100678.34;5055738;28;20275;-70
2022/11/15 09:08:28;;;;;;;17.13;8.68;;;;;;;10.05;100.00;100673.16;5055206;28;20037;-70
2022/11/15 09:10:54;;;;;;;;;;;;;;;10.11;100.00;100662.00;5046784;28;20017;-70
2022/11/15 09:13:19;;;;;;;21.42;10.73;;;;;;;10.11;100.00;100654.22;5048182;28;19928;-70
2022/11/15 09:15:44;;;;;;;16.33;8.38;;;;;;;10.13;100.00;100649.91;5048161;28;20092;-70
2022/11/15 09:18:09;;;;;;;18.05;8.68;;;;;;;10.15;100.00;100653.41;5045907;28;20260;-70
2022/11/15 09:20:35;;;;;;;18.45;8.25;;;;;;;10.15;100.00;100644.72;5047969;28;20021;-70
2022/11/15 09:23:01;;;;;;;17.23;8.02;;;;;;;10.14;100.00;100651.66;5046426;28;20238;-70
2022/11/15 09:25:27;;;;;;;19.27;8.25;;;;;;;10.15;100.00;100642.13;5043804;28;20036;-70
2022/11/15 09:27:52;;;;;;;16.17;7.40;;;;;;;10.17;100.00;100645.66;5059004;28;20044;-76
2022/11/15 09:30:17;;;;;;;13.02;6.95;;;;;;;10.17;100.00;100643.91;5046716;28;20024;-76
2022/11/15 09:32:42;;;;;;;12.50;6.95;;;;;;;10.18;100.00;100653.50;5026420;28;20179;-76
2022/11/15 09:35:08;;;;;;;13.45;7.30;;;;;;;10.20;99.79;100641.38;5051707;28;20256;-76
2022/11/15 09:37:33;;;;;;;14.60;7.30;;;;;;;10.25;100.00;100641.47;5065171;28;20033;-76
2022/11/15 09:39:58;;;;;;;10.00;5.75;;;;;;;10.27;98.26;100648.47;5036394;28;20092;-76
2022/11/15 09:42:52;;;;;;;11.20;6.10;;;;;;;10.31;98.25;100645.94;5062380;28;20078;-76
2022/11/15 09:45:37;;;;;;;11.10;5.07;;;;;;;10.29;96.91;100638.09;5058350;28;20059;-76
2022/11/15 09:48:36;;;;;;;10.30;5.07;;;;;;;10.34;95.59;100648.63;5051904;28;20152;-76
2022/11/15 09:51:04;;;;;;;12.13;4.82;;;;;;;10.35;96.24;100642.59;5060868;28;20025;-76
2022/11/15 09:53:42;;;;;;;8.65;4.68;;;;;;;10.38;95.82;100640.03;5060641;28;20017;-76
2022/11/15 09:56:19;;;;;;;9.52;4.00;;;;;;;10.40;94.98;100640.97;5056619;28;20192;-76
2022/11/15 09:58:59;;;;;;;8.23;3.80;;;;;;;10.43;92.81;100634.09;5055271;28;20020;-76
2022/11/15 10:01:43;;;;;;;7.20;3.40;;;;;;;10.47;92.94;100631.53;5055188;28;20055;-76
2022/11/15 10:04:09;;;;;;;7.07;2.80;;;;;;;10.46;90.51;100630.69;5056261;28;20028;-77
2022/11/15 10:06:42;;;;;;;6.97;3.00;;;;;;;10.48;89.52;100631.56;5035412;28;20139;-76
2022/11/15 10:09:23;;;;;;;8.52;3.30;;;;;;;10.48;88.90;100625.50;5056553;28;20164;-76
2022/11/15 10:11:49;;;;;;;5.53;2.90;;;;;;;10.49;87.11;100629.88;5052559;28;20264;-75
2022/11/15 10:14:24;;;;;;;8.20;3.00;;;;;;;10.51;88.17;100628.16;5053346;28;20033;-75
2022/11/15 10:16:52;;;;;;;6.32;2.78;;;;;;;10.56;86.67;100630.00;5052955;28;20390;-75
2022/11/15 10:19:33;;;;;;;8.05;2.60;;;;;;;10.59;86.42;100616.16;5058949;28;20027;-75
2022/11/15 10:22:26;;;;;;;7.50;2.33;;;;;;;10.59;86.72;100614.44;5061889;28;20021;-75
2022/11/15 10:25:09;;;;;;;6.25;2.50;;;;;;;10.57;85.34;100630.88;5060507;28;20039;-75
2022/11/15 10:27:35;;;;;;;6.43;2.33;;;;;;;10.52;83.76;100619.50;5046631;28;20029;-75
2022/11/15 10:30:03;;;;;;;5.50;2.28;;;;;;;10.48;83.47;100615.06;5058595;28;20094;-75
2022/11/15 10:32:32;;;;;;;5.25;1.98;;;;;;;10.45;83.29;100605.47;5051531;28;20041;-75
2022/11/15 10:34:57;;;;;;;6.07;2.05;;;;;;;10.46;83.59;100606.31;5061350;28;20256;-75
2022/11/15 10:37:30;;;;;;;6.30;2.00;;;;;;;10.47;83.14;100595.06;5063060;28;20047;-67
2022/11/15 10:40:14;;;;;;;4.70;1.95;;;;;;;10.48;82.85;100596.84;5045957;28;20170;-67
2022/11/15 10:42:39;;;;;;;6.45;2.10;;;;;;;10.50;82.44;100584.72;5055856;28;20065;-67
2022/11/15 10:45:23;;;;;;;8.05;2.10;;;;;;;10.54;82.90;100589.13;5063678;28;20318;-67
2022/11/15 10:47:48;;;;;;;6.43;2.22;;;;;;;10.55;81.46;100583.94;5052127;28;20299;-65
2022/11/15 10:50:29;;;;;;;5.82;2.10;;;;;;;10.55;82.80;100570.94;5052511;28;20020;-66
2022/11/15 10:52:55;;;;;;;5.38;2.15;;;;;;;10.59;82.06;100579.69;5045469;28;20031;-67
2022/11/15 10:55:25;;;;;;;5.03;2.30;;;;;;;10.61;82.49;100586.66;5061629;28;20021;-66
2022/11/15 10:58:18;;;;;;;6.57;2.17;;;;;;;10.65;83.87;100577.19;5061715;28;20220;-67
2022/11/15 11:00:44;;;;;;;5.90;2.00;;;;;;;10.71;82.11;100579.03;5025576;28;20036;-66
2022/11/15 11:03:34;;;;;;;7.88;1.83;;;;;;;10.78;82.81;100570.50;5054397;28;20029;-67
2022/11/15 11:06:26;;;;;;;5.35;2.10;;;;;;;10.81;82.62;100562.72;5059594;28;20033;-67
2022/11/15 11:08:57;;;;;;;7.10;2.13;;;;;;;10.83;82.08;100561.00;5052559;28;20280;-76
2022/11/15 11:11:23;;;;;;;7.30;2.20;;;;;;;10.89;83.10;100549.81;5063216;28;20021;-76
2022/11/15 11:13:49;;;;;;;5.25;2.38;;;;;;;10.96;81.66;100549.06;5048989;28;20026;-75
2022/11/15 11:16:15;;;;;;;6.70;2.38;;;;;;;11.00;81.96;100547.41;5054843;28;20017;-75
2022/11/15 11:19:12;;;;;;;10.95;3.08;;;;;;;11.04;81.20;100541.41;5062441;28;20032;-75
2022/11/15 11:22:03;;;;;;;5.53;2.40;;;;;;;11.04;81.99;100544.88;5063127;28;20029;-75
2022/11/15 11:24:43;;;;;;;7.13;2.03;;;;;;;11.06;80.64;100537.94;5052157;28;20183;-75
2022/11/15 11:27:49;;;;;;;9.32;2.30;;;;;;;11.11;80.71;100533.69;5056175;28;20028;-76